Time;durP1;ratioP1;P1;durP2;ratioP2;P2;SDS_P1;SDS_P2;PMS_P1;PMS_P2;Temp;Humidity;BMP_temperature;BMP_pressure;BME280_temperature;BME280_humidity;BME280_pressure;Samples;Min_cycle;Max_cycle;Signal;HPM_P1;HPM_P2
2022/10/30 00:00:27;;;;;;;12.15;5.45;;;14.90;99.90;;;;;;1857094;77;21114;-76
2022/10/30 00:03:22;;;;;;;11.70;4.90;;;14.80;99.90;;;;;;1914073;74;21566;-75
2022/10/30 00:06:37;;;;;;;12.43;5.00;;;14.70;99.90;;;;;;1829287;77;21178;-76
2022/10/30 00:09:45;;;;;;;9.65;4.70;;;14.80;99.90;;;;;;1899476;75;21077;-76
2022/10/30 00:12:40;;;;;;;9.05;4.95;;;14.70;99.90;;;;;;1899365;75;21169;-76
2022/10/30 00:15:35;;;;;;;9.45;4.75;;;14.70;99.90;;;;;;1906731;74;21074;-76
2022/10/30 00:18:32;;;;;;;9.33;5.47;;;14.70;99.90;;;;;;1910199;74;21118;-76
2022/10/30 00:21:32;;;;;;;10.93;5.40;;;14.70;99.90;;;;;;1900223;74;21147;-76
2022/10/30 00:24:26;;;;;;;13.00;5.53;;;14.70;99.90;;;;;;1875391;76;21133;-76
2022/10/30 00:27:19;;;;;;;10.68;4.87;;;14.60;99.90;;;;;;1875065;75;21085;-76
2022/10/30 00:30:15;;;;;;;11.12;4.62;;;14.60;99.90;;;;;;1918714;74;21058;-76
2022/10/30 00:33:10;;;;;;;12.80;4.67;;;14.60;99.90;;;;;;1879610;74;21230;-75
2022/10/30 00:36:04;;;;;;;10.90;4.47;;;14.50;99.90;;;;;;1922110;74;21591;-76
2022/10/30 00:38:59;;;;;;;9.93;5.20;;;14.50;99.90;;;;;;1855966;77;21136;-76
2022/10/30 00:41:58;;;;;;;12.20;5.03;;;14.50;99.90;;;;;;1899632;75;21144;-76
2022/10/30 00:44:55;;;;;;;12.13;4.53;;;14.50;99.90;;;;;;1887673;74;21145;-77
2022/10/30 00:47:53;;;;;;;13.65;5.05;;;14.60;99.90;;;;;;1868274;76;21583;-76
2022/10/30 00:50:46;;;;;;;8.35;5.05;;;14.50;99.90;;;;;;1837324;77;21087;-76
2022/10/30 00:53:38;;;;;;;9.63;5.33;;;14.50;99.90;;;;;;1897429;75;21105;-76
2022/10/30 00:56:31;;;;;;;15.10;5.42;;;14.50;99.90;;;;;;1882666;76;21110;-76
2022/10/30 00:59:35;;;;;;;12.55;5.12;;;14.50;99.90;;;;;;1911196;75;21117;-75
2022/10/30 01:02:28;;;;;;;9.85;4.55;;;14.40;99.90;;;;;;1914480;75;21132;-76
2022/10/30 01:05:28;;;;;;;10.10;4.70;;;14.40;99.90;;;;;;1853305;75;21063;-76
2022/10/30 01:08:21;;;;;;;13.05;5.60;;;14.30;99.90;;;;;;1894682;75;21059;-76
2022/10/30 01:11:18;;;;;;;11.20;5.10;;;14.20;99.90;;;;;;1882741;76;21059;-76
2022/10/30 01:14:15;;;;;;;14.25;5.55;;;14.20;99.90;;;;;;1892567;75;21090;-75
2022/10/30 01:17:40;;;;;;;11.80;5.30;;;14.30;99.90;;;;;;1870064;76;21117;-76
2022/10/30 01:21:03;;;;;;;13.00;5.08;;;14.30;99.90;;;;;;1912521;75;21083;-76
2022/10/30 01:24:03;;;;;;;10.00;4.50;;;14.30;99.90;;;;;;1880461;75;21137;-76
2022/10/30 01:27:00;;;;;;;10.53;5.08;;;14.30;99.90;;;;;;1910714;75;21126;-75
2022/10/30 01:29:58;;;;;;;9.98;5.12;;;14.30;99.90;;;;;;1888319;75;21078;-75
2022/10/30 01:33:02;;;;;;;7.83;4.30;;;14.30;99.90;;;;;;1893696;75;21656;-76
2022/10/30 01:35:59;;;;;;;9.48;4.83;;;14.30;99.90;;;;;;1883132;76;21063;-76
2022/10/30 01:38:56;;;;;;;10.38;5.15;;;14.30;99.90;;;;;;1884383;76;21103;-77
2022/10/30 01:41:52;;;;;;;11.35;5.03;;;14.40;99.90;;;;;;1882622;76;21059;-76
2022/10/30 01:44:45;;;;;;;12.65;5.60;;;14.40;99.90;;;;;;1899096;75;21082;-76
2022/10/30 01:47:41;;;;;;;10.75;5.37;;;14.40;99.90;;;;;;1894198;75;21105;-76
2022/10/30 01:50:39;;;;;;;8.10;5.08;;;14.40;99.90;;;;;;1903681;75;21066;-76
2022/10/30 01:53:33;;;;;;;;;;;14.40;99.90;;;;;;1904131;75;21108;-76
2022/10/30 01:56:31;;;;;;;11.73;5.70;;;14.40;99.90;;;;;;1855402;76;20186;-75
2022/10/30 01:59:28;;;;;;;9.23;5.00;;;14.40;99.90;;;;;;1884109;76;21099;-75
2022/10/30 02:02:23;;;;;;;10.85;5.05;;;14.40;99.90;;;;;;1870764;75;21561;-75
2022/10/30 02:05:23;;;;;;;8.50;4.83;;;14.40;99.90;;;;;;1901040;75;21106;-75
2022/10/30 02:08:18;;;;;;;12.65;5.78;;;14.40;99.90;;;;;;1891495;75;21154;-75
2022/10/30 02:11:12;;;;;;;12.55;5.17;;;14.30;99.90;;;;;;1889594;75;21082;-75
2022/10/30 02:14:07;;;;;;;11.93;4.83;;;14.40;99.90;;;;;;1894242;75;21063;-75
2022/10/30 02:17:02;;;;;;;9.33;5.03;;;14.40;99.90;;;;;;1911120;75;21623;-75
2022/10/30 02:19:55;;;;;;;12.15;4.87;;;14.50;99.90;;;;;;1894014;75;21063;-75
2022/10/30 02:22:48;;;;;;;8.83;5.00;;;14.50;99.90;;;;;;1878797;75;21122;-75
2022/10/30 02:25:43;;;;;;;9.95;5.33;;;14.50;99.90;;;;;;1872359;77;21071;-75
2022/10/30 02:28:36;;;;;;;10.25;5.25;;;14.50;99.90;;;;;;1881072;75;21180;-77
2022/10/30 02:31:28;;;;;;;8.83;5.12;;;14.50;99.90;;;;;;1882692;75;21062;-76
2022/10/30 02:34:22;;;;;;;13.30;5.47;;;14.40;99.90;;;;;;1896341;75;21095;-76
2022/10/30 02:37:14;;;;;;;11.83;5.33;;;14.40;99.90;;;;;;1887389;75;21134;-76
2022/10/30 02:40:12;;;;;;;11.03;5.33;;;14.30;99.90;;;;;;1889629;75;21123;-75
2022/10/30 02:43:04;;;;;;;10.70;5.55;;;14.30;99.90;;;;;;1891065;75;21150;-75
2022/10/30 02:45:57;;;;;;;10.38;5.12;;;14.30;99.90;;;;;;1904767;74;21169;-75
2022/10/30 02:48:50;;;;;;;11.75;5.65;;;14.30;99.90;;;;;;1908151;74;21560;-76
2022/10/30 02:51:46;;;;;;;10.15;4.83;;;14.30;99.90;;;;;;1904414;74;21152;-75
2022/10/30 02:54:37;;;;;;;10.80;5.72;;;14.30;99.90;;;;;;1906083;74;21149;-75
2022/10/30 02:57:30;;;;;;;13.10;5.10;;;14.20;99.90;;;;;;1923025;74;21054;-75
2022/10/30 03:00:25;;;;;;;11.65;5.50;;;14.20;99.90;;;;;;1894132;75;21067;-75
2022/10/30 03:03:18;;;;;;;11.70;5.22;;;14.20;99.90;;;;;;1905520;75;21049;-76
2022/10/30 03:06:14;;;;;;;10.23;4.65;;;14.10;99.90;;;;;;1894102;74;21144;-76
2022/10/30 03:09:07;;;;;;;9.38;5.33;;;14.10;99.90;;;;;;1902374;74;21578;-75
2022/10/30 03:12:00;;;;;;;11.95;5.03;;;14.10;99.90;;;;;;1888661;74;21167;-75
2022/10/30 03:14:53;;;;;;;10.38;4.85;;;14.10;99.90;;;;;;1927009;74;21151;-75
2022/10/30 03:17:46;;;;;;;9.35;4.20;;;14.00;99.90;;;;;;1896925;75;21212;-75
2022/10/30 03:20:38;;;;;;;12.45;5.55;;;14.10;99.90;;;;;;1896117;75;21164;-75
2022/10/30 03:23:32;;;;;;;13.50;5.50;;;14.00;99.90;;;;;;1898812;75;21552;-76
2022/10/30 03:26:25;;;;;;;13.38;5.42;;;13.90;99.90;;;;;;1915900;74;21091;-75
2022/10/30 03:29:21;;;;;;;11.40;4.62;;;13.80;99.90;;;;;;1912958;74;21170;-75
2022/10/30 03:32:13;;;;;;;10.40;5.45;;;13.70;99.90;;;;;;1896572;75;21112;-76
2022/10/30 03:35:11;;;;;;;9.73;5.35;;;13.70;99.90;;;;;;1916391;74;21069;-75
2022/10/30 03:38:03;;;;;;;9.50;4.40;;;13.70;99.90;;;;;;1916011;74;21066;-75
2022/10/30 03:40:57;;;;;;;9.25;4.00;;;13.60;99.90;;;;;;1916129;74;21512;-75
2022/10/30 03:43:50;;;;;;;10.32;4.67;;;13.60;99.90;;;;;;1911394;74;21086;-77
2022/10/30 03:46:42;;;;;;;7.78;4.37;;;13.60;99.90;;;;;;1913930;74;21203;-76
2022/10/30 03:49:45;;;;;;;11.28;4.85;;;13.60;99.90;;;;;;1899991;74;21140;-76
2022/10/30 03:52:40;;;;;;;9.53;4.35;;;13.60;99.90;;;;;;1915590;74;21187;-75
2022/10/30 03:55:35;;;;;;;8.23;4.37;;;13.60;99.90;;;;;;1915594;74;21131;-75
2022/10/30 03:58:31;;;;;;;9.68;4.97;;;13.60;99.90;;;;;;1912265;74;21121;-75
2022/10/30 04:01:27;;;;;;;11.93;4.70;;;13.60;99.90;;;;;;1907631;74;21554;-75
2022/10/30 04:04:20;;;;;;;11.22;4.45;;;13.70;99.90;;;;;;1904143;74;21058;-75
2022/10/30 04:07:11;;;;;;;10.65;4.80;;;13.70;99.90;;;;;;1898789;74;21210;-75
2022/10/30 04:10:05;;;;;;;8.63;4.58;;;13.70;99.90;;;;;;1912748;74;21108;-75
2022/10/30 04:13:04;;;;;;;10.75;4.40;;;13.70;99.90;;;;;;1893259;76;21062;-76
2022/10/30 04:15:58;;;;;;;12.75;4.72;;;13.70;99.90;;;;;;1893312;76;21148;-76
2022/10/30 04:18:49;;;;;;;7.58;4.40;;;13.70;99.90;;;;;;1902205;74;21220;-75
2022/10/30 04:21:46;;;;;;;8.53;4.15;;;13.70;99.90;;;;;;1899921;74;21152;-75
2022/10/30 04:24:38;;;;;;;8.93;4.10;;;13.60;99.90;;;;;;1911156;74;21149;-76
2022/10/30 04:27:31;;;;;;;10.40;4.55;;;13.60;99.90;;;;;;1867127;76;21049;-75
2022/10/30 04:30:26;;;;;;;14.30;5.53;;;13.60;99.90;;;;;;1893282;76;21156;-75
2022/10/30 04:33:19;;;;;;;12.53;4.92;;;13.60;99.90;;;;;;1893507;76;21101;-76
2022/10/30 04:36:13;;;;;;;9.58;4.42;;;13.60;99.90;;;;;;1895182;74;21114;-76
2022/10/30 04:39:05;;;;;;;9.18;4.22;;;13.50;99.90;;;;;;1907458;74;21109;-76
2022/10/30 04:41:59;;;;;;;9.65;4.37;;;13.50;99.90;;;;;;1893455;76;21120;-76
2022/10/30 04:44:53;;;;;;;7.72;4.05;;;13.50;99.90;;;;;;1902794;74;21074;-76
2022/10/30 04:47:49;;;;;;;9.45;4.05;;;13.50;99.90;;;;;;1893537;74;21162;-76
2022/10/30 04:50:43;;;;;;;9.73;3.90;;;13.60;99.90;;;;;;1882921;75;21225;-75
2022/10/30 04:53:36;;;;;;;7.97;4.20;;;13.50;99.90;;;;;;1887432;75;21079;-76
2022/10/30 04:56:31;;;;;;;13.58;4.65;;;13.50;99.90;;;;;;1871994;77;21102;-76
2022/10/30 04:59:25;;;;;;;10.90;4.17;;;13.60;99.90;;;;;;1901520;75;21518;-76
2022/10/30 05:02:19;;;;;;;7.58;4.67;;;13.60;99.90;;;;;;1865979;75;21049;-75
2022/10/30 05:05:12;;;;;;;6.67;4.67;;;13.60;99.90;;;;;;1847459;77;21074;-75
2022/10/30 05:08:05;;;;;;;9.23;4.37;;;13.50;99.90;;;;;;1832661;78;21080;-76
2022/10/30 05:11:02;;;;;;;7.85;4.25;;;13.50;99.90;;;;;;1836736;77;21415;-76
2022/10/30 05:13:56;;;;;;;10.70;4.60;;;13.50;99.90;;;;;;1858233;77;21198;-75
2022/10/30 05:16:49;;;;;;;7.75;4.17;;;13.50;99.90;;;;;;1894433;75;21105;-75
2022/10/30 05:19:46;;;;;;;9.68;4.70;;;13.50;99.90;;;;;;1896228;75;21065;-75
2022/10/30 05:22:38;;;;;;;9.85;4.40;;;13.40;99.90;;;;;;1854926;76;21111;-76
2022/10/30 05:25:30;;;;;;;9.60;4.67;;;13.40;99.90;;;;;;1895331;75;21067;-75
2022/10/30 05:28:24;;;;;;;8.43;4.58;;;13.40;99.90;;;;;;1882467;75;21146;-76
2022/10/30 05:31:21;;;;;;;11.97;4.92;;;13.40;99.90;;;;;;1915031;75;21058;-76
2022/10/30 05:34:17;;;;;;;10.72;5.17;;;13.40;99.90;;;;;;1890345;75;21063;-75
2022/10/30 05:37:12;;;;;;;8.23;4.62;;;13.40;99.90;;;;;;1899806;75;21086;-75
2022/10/30 05:40:20;;;;;;;14.98;5.12;;;13.40;99.90;;;;;;1905980;75;21055;-75
2022/10/30 05:43:12;;;;;;;11.10;5.00;;;13.50;99.90;;;;;;1906182;75;21093;-75
2022/10/30 05:46:05;;;;;;;11.48;4.80;;;13.50;99.90;;;;;;1894014;75;21125;-75
2022/10/30 05:48:59;;;;;;;9.88;5.17;;;13.50;99.90;;;;;;1872759;75;21112;-76
2022/10/30 05:51:53;;;;;;;14.05;4.65;;;13.50;99.90;;;;;;1877925;76;21067;-76
2022/10/30 05:54:46;;;;;;;12.47;4.62;;;13.50;99.90;;;;;;1883957;76;21519;-75
2022/10/30 05:57:40;;;;;;;8.95;4.30;;;13.50;99.90;;;;;;1879185;75;21262;-77
2022/10/30 06:00:36;;;;;;;8.50;4.60;;;13.40;99.90;;;;;;1882698;75;21588;-77
2022/10/30 06:03:29;;;;;;;10.23;4.70;;;13.40;99.90;;;;;;1896984;75;21063;-75
2022/10/30 06:06:21;;;;;;;11.68;4.92;;;13.50;99.90;;;;;;1898882;75;21066;-75
2022/10/30 06:09:18;;;;;;;9.50;4.80;;;13.50;99.90;;;;;;1872569;75;21047;-76
2022/10/30 06:12:24;;;;;;;12.20;5.07;;;13.50;99.90;;;;;;1894447;75;21152;-76
2022/10/30 06:15:18;;;;;;;11.57;5.65;;;13.50;99.90;;;;;;1905996;75;21391;-75
2022/10/30 06:18:12;;;;;;;14.60;8.23;;;13.50;99.90;;;;;;1893927;75;21189;-75
2022/10/30 06:21:07;;;;;;;14.03;10.85;;;13.50;99.90;;;;;;1884245;76;21153;-75
2022/10/30 06:26:54;;;;;;;22.15;15.05;;;13.50;99.90;;;;;;1947158;72;22157;-75
2022/10/30 06:29:46;;;;;;;19.70;13.90;;;13.50;99.90;;;;;;1847051;76;21109;-75
2022/10/30 06:32:37;;;;;;;20.27;12.53;;;13.50;99.90;;;;;;1925062;74;21084;-77
2022/10/30 06:35:29;;;;;;;16.05;10.40;;;13.50;99.90;;;;;;1905224;75;21646;-75
2022/10/30 06:38:20;;;;;;;16.70;8.40;;;13.50;99.90;;;;;;1905250;75;21558;-76
2022/10/30 06:41:13;;;;;;;17.37;8.90;;;13.60;99.90;;;;;;1905385;75;21051;-75
2022/10/30 06:44:24;;;;;;;10.45;7.65;;;13.60;99.90;;;;;;1905145;75;21070;-76
2022/10/30 06:47:16;;;;;;;13.53;7.90;;;13.60;99.90;;;;;;1905320;75;21147;-75
2022/10/30 06:50:10;;;;;;;15.30;9.15;;;13.50;99.90;;;;;;1905444;75;21107;-75
2022/10/30 06:53:01;;;;;;;16.10;8.90;;;13.50;99.90;;;;;;1905392;75;21654;-75
2022/10/30 06:55:57;;;;;;;16.55;8.63;;;13.50;99.90;;;;;;1905237;75;21682;-76
2022/10/30 06:59:05;;;;;;;15.20;8.18;;;13.50;99.90;;;;;;1905222;75;21202;-76
2022/10/30 07:01:58;;;;;;;14.35;7.08;;;13.50;99.90;;;;;;1868973;77;21083;-76
2022/10/30 07:04:52;;;;;;;15.05;6.92;;;13.50;99.90;;;;;;1905431;75;21487;-76
2022/10/30 07:07:44;;;;;;;15.32;6.92;;;13.50;99.90;;;;;;1905392;75;21096;-76
2022/10/30 07:10:36;;;;;;;13.20;7.47;;;13.50;99.90;;;;;;1905207;75;21193;-76
2022/10/30 07:13:35;;;;;;;14.20;6.42;;;13.40;99.90;;;;;;1874277;74;21104;-75
2022/10/30 07:16:28;;;;;;;10.40;6.62;;;13.40;99.90;;;;;;1917863;74;21546;-76
2022/10/30 07:19:19;;;;;;;12.90;6.65;;;13.40;99.90;;;;;;1905315;75;21047;-75
2022/10/30 07:22:10;;;;;;;16.40;7.17;;;13.50;99.90;;;;;;1927813;74;21067;-75
2022/10/30 07:25:04;;;;;;;12.33;6.42;;;13.50;99.90;;;;;;1905416;75;21095;-75
2022/10/30 07:28:15;;;;;;;11.45;6.25;;;13.50;99.90;;;;;;1880082;75;21070;-75
2022/10/30 07:31:08;;;;;;;8.93;5.50;;;13.40;99.90;;;;;;1905568;75;21080;-75
2022/10/30 07:34:10;;;;;;;10.30;4.70;;;13.40;99.90;;;;;;1892561;75;21533;-76
2022/10/30 07:37:12;;;;;;;9.83;5.15;;;13.40;99.90;;;;;;1904583;74;21212;-76
2022/10/30 07:40:09;;;;;;;11.50;5.72;;;13.40;99.90;;;;;;1904709;75;21562;-76
2022/10/30 07:43:09;;;;;;;10.45;4.87;;;13.40;99.90;;;;;;1926993;74;21154;-76
2022/10/30 07:46:21;;;;;;;11.70;5.00;;;13.40;99.90;;;;;;1927218;74;21072;-76
2022/10/30 07:49:30;;;;;;;10.35;5.03;;;13.40;99.90;;;;;;1904640;75;21514;-76
2022/10/30 07:52:23;;;;;;;11.33;5.92;;;13.40;99.90;;;;;;1927473;74;21175;-76
2022/10/30 07:55:15;;;;;;;11.22;5.35;;;13.30;99.90;;;;;;1923803;74;21052;-77
2022/10/30 07:58:08;;;;;;;10.68;6.12;;;13.50;99.90;;;;;;1900992;74;21606;-76
2022/10/30 08:01:13;;;;;;;10.28;6.20;;;13.50;99.90;;;;;;1853563;75;21608;-75
2022/10/30 08:04:05;;;;;;;13.70;6.37;;;13.50;99.90;;;;;;1904446;75;21057;-76
2022/10/30 08:06:59;;;;;;;13.08;6.42;;;13.50;99.90;;;;;;1906035;74;21394;-76
2022/10/30 08:09:52;;;;;;;10.75;5.95;;;13.40;99.90;;;;;;1919357;74;21124;-76
2022/10/30 08:12:46;;;;;;;12.45;6.55;;;13.50;99.90;;;;;;1904851;75;21044;-75
2022/10/30 08:15:38;;;;;;;10.38;5.87;;;13.60;99.90;;;;;;1913498;74;21098;-77
2022/10/30 08:18:30;;;;;;;10.68;6.12;;;13.60;99.90;;;;;;1911748;74;21051;-76
2022/10/30 08:21:21;;;;;;;13.32;6.40;;;13.70;99.90;;;;;;1904506;75;21141;-75
2022/10/30 08:24:23;;;;;;;9.98;6.33;;;13.80;99.90;;;;;;1916994;74;21099;-76
2022/10/30 08:27:15;;;;;;;13.55;7.17;;;13.80;99.90;;;;;;1907119;75;21181;-76
2022/10/30 08:30:09;;;;;;;11.40;5.92;;;13.80;99.90;;;;;;1918130;74;21039;-77
2022/10/30 08:35:39;;;;;;;10.03;5.85;;;14.00;99.90;;;;;;1964333;72;22700;-76
2022/10/30 08:38:30;;;;;;;14.73;6.40;;;14.10;99.90;;;;;;1917339;73;21114;-76
2022/10/30 08:41:32;;;;;;;14.10;6.58;;;14.10;99.90;;;;;;1924317;73;21114;-78
2022/10/30 08:44:23;;;;;;;14.35;6.60;;;14.20;99.90;;;;;;1917226;75;21117;-77
2022/10/30 08:47:16;;;;;;;13.75;6.60;;;14.20;99.90;;;;;;1892855;75;21090;-88
2022/10/30 08:50:08;;;;;;;11.05;5.92;;;14.30;99.90;;;;;;1917206;75;21620;-80
2022/10/30 08:53:06;;;;;;;10.18;5.97;;;14.30;99.90;;;;;;1917426;74;21103;-74
2022/10/30 08:55:57;;;;;;;11.93;5.70;;;14.50;99.90;;;;;;1940392;73;21080;-74
2022/10/30 08:58:51;;;;;;;9.60;5.97;;;14.50;99.90;;;;;;1936402;73;21054;-74
2022/10/30 09:01:42;;;;;;;8.68;5.60;;;14.60;99.90;;;;;;1917538;74;21535;-74
2022/10/30 09:04:45;;;;;;;14.45;5.60;;;14.70;99.90;;;;;;1893111;74;21075;-74
2022/10/30 09:07:59;;;;;;;12.95;5.08;;;14.70;99.90;;;;;;1917693;75;21153;-74
2022/10/30 09:11:10;;;;;;;11.05;5.60;;;14.80;99.90;;;;;;1927989;73;21140;-74
2022/10/30 09:14:02;;;;;;;11.03;4.97;;;14.90;99.90;;;;;;1939879;73;21264;-74
2022/10/30 09:16:55;;;;;;;12.20;5.70;;;15.00;99.90;;;;;;1917193;75;21114;-74
2022/10/30 09:19:46;;;;;;;12.78;6.50;;;15.10;99.90;;;;;;1933173;73;21105;-74
2022/10/30 09:22:42;;;;;;;12.10;6.58;;;15.20;99.90;;;;;;1881592;75;21121;-74
2022/10/30 09:25:34;;;;;;;15.72;6.62;;;15.20;99.90;;;;;;1928440;73;21047;-74
2022/10/30 09:28:29;;;;;;;12.73;6.95;;;15.30;99.90;;;;;;1921165;73;21098;-74
2022/10/30 09:34:01;;;;;;;12.82;5.87;;;15.50;99.90;;;;;;1954826;72;22078;-73
2022/10/30 09:37:04;;;;;;;14.33;6.67;;;15.60;99.90;;;;;;1897547;75;21616;-73
2022/10/30 09:39:57;;;;;;;12.63;6.10;;;15.60;99.90;;;;;;1909305;75;21071;-73
2022/10/30 09:42:49;;;;;;;18.32;5.97;;;15.50;99.90;;;;;;1906003;75;21060;-76
2022/10/30 09:45:51;;;;;;;10.70;5.72;;;15.60;99.90;;;;;;1895660;75;21063;-75
2022/10/30 09:48:54;;;;;;;9.28;5.72;;;15.70;99.90;;;;;;1916242;75;21619;-74
2022/10/30 09:52:22;;;;;;;12.58;5.20;;;15.80;99.90;;;;;;1902897;75;21163;-74
2022/10/30 09:55:26;;;;;;;17.48;4.83;;;15.80;99.90;;;;;;1884518;75;21595;-74
2022/10/30 09:58:23;;;;;;;13.15;5.17;;;15.90;99.90;;;;;;1899059;75;21120;-74
2022/10/30 10:01:19;;;;;;;13.15;5.78;;;16.00;99.90;;;;;;1896531;75;21043;-74
2022/10/30 10:04:19;;;;;;;9.55;5.75;;;16.10;99.90;;;;;;1887433;75;21174;-75
2022/10/30 10:07:21;;;;;;;9.98;5.80;;;16.10;99.90;;;;;;1868478;76;21121;-74
2022/10/30 10:13:03;;;;;;;9.95;5.28;;;16.30;99.90;;;;;;1954668;72;22165;-74
2022/10/30 10:15:59;;;;;;;11.80;5.47;;;16.40;99.90;;;;;;1896545;75;21668;-74
2022/10/30 10:18:54;;;;;;;10.90;4.40;;;16.40;99.90;;;;;;1890310;75;21051;-74
2022/10/30 10:21:48;;;;;;;13.72;4.50;;;16.50;99.90;;;;;;1887300;75;21526;-75
2022/10/30 10:24:43;;;;;;;9.50;4.40;;;16.50;99.90;;;;;;1917329;75;21055;-74
2022/10/30 10:27:40;;;;;;;10.50;5.08;;;16.50;99.90;;;;;;1901649;75;21205;-74
2022/10/30 10:30:36;;;;;;;12.03;5.50;;;16.60;99.90;;;;;;1910494;75;21038;-74
2022/10/30 10:33:45;;;;;;;11.80;4.42;;;16.70;99.90;;;;;;1900494;75;21054;-74
2022/10/30 10:36:41;;;;;;;10.00;5.60;;;16.80;99.90;;;;;;1891115;75;21087;-75
2022/10/30 10:39:41;;;;;;;14.23;5.70;;;16.80;99.90;;;;;;1915478;75;21646;-75
2022/10/30 10:42:37;;;;;;;14.50;5.78;;;16.90;99.90;;;;;;1904984;75;21088;-75
2022/10/30 10:45:33;;;;;;;12.70;5.65;;;16.90;99.90;;;;;;1884404;76;21521;-75
2022/10/30 10:48:49;;;;;;;11.38;5.05;;;17.00;99.90;;;;;;1886941;75;21183;-75
2022/10/30 10:51:44;;;;;;;13.72;5.75;;;17.00;99.90;;;;;;1906631;75;21103;-75
2022/10/30 10:54:39;;;;;;;9.00;5.72;;;17.10;99.90;;;;;;1895167;75;21168;-75
2022/10/30 10:57:33;;;;;;;14.95;5.60;;;17.20;99.90;;;;;;1913130;75;21052;-75
2022/10/30 11:00:27;;;;;;;11.08;5.15;;;17.20;99.90;;;;;;1884074;75;21114;-75
2022/10/30 11:03:21;;;;;;;15.18;5.10;;;17.20;99.90;;;;;;1916980;75;21134;-75
2022/10/30 11:06:22;;;;;;;10.45;5.62;;;17.20;99.90;;;;;;1897554;75;21059;-75
2022/10/30 11:09:19;;;;;;;11.20;4.70;;;17.20;99.90;;;;;;1907574;75;21129;-74
2022/10/30 11:12:10;;;;;;;12.50;5.17;;;17.20;99.90;;;;;;1887229;75;21382;-75
2022/10/30 11:15:04;;;;;;;12.18;4.72;;;17.30;99.90;;;;;;1883149;75;21172;-75
2022/10/30 11:18:00;;;;;;;8.25;4.20;;;17.40;99.90;;;;;;1904989;75;21119;-75
2022/10/30 11:20:57;;;;;;;8.18;4.58;;;17.50;99.90;;;;;;1891023;75;21191;-75
2022/10/30 11:23:50;;;;;;;13.25;4.55;;;17.60;99.90;;;;;;1893878;75;21529;-75
2022/10/30 11:26:42;;;;;;;12.73;4.40;;;17.60;99.90;;;;;;1893492;75;22212;-75
2022/10/30 11:29:34;;;;;;;9.53;4.65;;;17.70;99.90;;;;;;1871815;75;21487;-75
2022/10/30 11:32:28;;;;;;;9.63;4.70;;;17.80;99.90;;;;;;1889103;75;21598;-74
2022/10/30 11:35:21;;;;;;;12.70;5.22;;;17.90;99.90;;;;;;1884289;75;21043;-75
2022/10/30 11:38:19;;;;;;;10.72;4.97;;;18.00;99.90;;;;;;1882057;75;21107;-76
2022/10/30 11:41:09;;;;;;;;;;;18.00;99.90;;;;;;1904245;75;21056;-74
2022/10/30 11:44:00;;;;;;;10.32;5.33;;;18.10;99.90;;;;;;1891456;75;20219;-75
2022/10/30 11:46:52;;;;;;;13.62;4.53;;;18.20;99.90;;;;;;1898221;75;21180;-76
2022/10/30 11:49:48;;;;;;;11.30;4.70;;;18.30;99.90;;;;;;1885054;75;21090;-75
2022/10/30 11:52:42;;;;;;;9.68;4.75;;;18.40;99.90;;;;;;1893963;75;21522;-76
2022/10/30 11:55:36;;;;;;;9.93;4.70;;;18.40;99.90;;;;;;1884086;75;21063;-75
2022/10/30 12:01:13;;;;;;;10.13;4.55;;;18.50;99.90;;;;;;1941821;72;22212;-74
2022/10/30 12:04:16;;;;;;;8.60;4.40;;;18.60;99.90;;;;;;1889235;75;21109;-76
2022/10/30 12:07:23;;;;;;;11.78;4.53;;;18.70;99.90;;;;;;1884169;76;21061;-76
2022/10/30 12:10:25;;;;;;;11.15;5.10;;;18.80;99.90;;;;;;1884270;76;21139;-75
2022/10/30 12:13:17;;;;;;;11.57;4.72;;;18.90;99.90;;;;;;1883511;76;21136;-75
2022/10/30 12:16:15;;;;;;;10.80;4.90;;;19.00;99.90;;;;;;1899989;75;21148;-75
2022/10/30 12:19:14;;;;;;;12.03;5.17;;;19.10;99.90;;;;;;1885515;74;21157;-75
2022/10/30 12:22:01;;;;;;;11.43;4.83;;;19.10;99.90;;;;;;1903484;75;21450;-75
2022/10/30 12:24:55;;;;;;;13.48;4.60;;;19.10;99.90;;;;;;1891932;75;21381;-75
2022/10/30 12:27:47;;;;;;;9.73;4.70;;;19.20;99.90;;;;;;1902724;74;21294;-75
2022/10/30 12:30:41;;;;;;;8.65;4.53;;;19.30;99.90;;;;;;1884792;76;21114;-75
2022/10/30 12:33:36;;;;;;;12.05;4.55;;;19.40;99.90;;;;;;1893662;75;21110;-75
2022/10/30 12:36:32;;;;;;;11.03;4.62;;;19.40;99.90;;;;;;1905862;75;21054;-75
2022/10/30 12:39:27;;;;;;;11.08;4.58;;;19.40;99.90;;;;;;1885183;75;21615;-75
2022/10/30 12:42:21;;;;;;;9.63;4.70;;;19.40;99.90;;;;;;1898994;75;21078;-75
2022/10/30 12:45:17;;;;;;;7.42;4.35;;;19.50;99.90;;;;;;1884473;76;21107;-75
2022/10/30 12:48:13;;;;;;;15.20;4.75;;;19.60;99.90;;;;;;1884395;76;21128;-75
2022/10/30 12:51:15;;;;;;;13.10;4.20;;;19.60;99.90;;;;;;1906433;75;21066;-75
2022/10/30 12:54:11;;;;;;;9.78;4.65;;;19.70;99.90;;;;;;1888273;75;21495;-75
2022/10/30 12:57:08;;;;;;;10.25;4.40;;;19.80;99.90;;;;;;1896368;75;21136;-75
2022/10/30 13:00:05;;;;;;;9.45;4.15;;;19.80;99.90;;;;;;1901986;75;21081;-76
2022/10/30 13:03:01;;;;;;;9.43;4.78;;;19.90;99.90;;;;;;1897211;75;21585;-75
2022/10/30 13:05:55;;;;;;;10.30;4.50;;;19.90;99.90;;;;;;1883255;75;21109;-75
2022/10/30 13:08:51;;;;;;;10.65;4.87;;;19.90;99.90;;;;;;1913184;75;21601;-75
2022/10/30 13:14:31;;;;;;;13.90;5.03;;;20.00;99.90;;;;;;1959699;72;22146;-75
2022/10/30 13:17:23;;;;;;;9.60;4.28;;;20.10;99.90;;;;;;1917347;75;21107;-74
2022/10/30 13:20:16;;;;;;;8.73;4.15;;;20.20;99.90;;;;;;1917557;75;21083;-75
2022/10/30 13:23:11;;;;;;;15.93;5.15;;;20.20;99.90;;;;;;1917964;73;21079;-75
2022/10/30 13:26:09;;;;;;;9.75;4.08;;;20.20;99.90;;;;;;1932746;73;21156;-75
2022/10/30 13:29:11;;;;;;;9.05;4.20;;;20.30;99.90;;;;;;1916977;75;21121;-76
2022/10/30 13:32:26;;;;;;;10.25;4.22;;;20.30;99.90;;;;;;1917319;75;21099;-75
2022/10/30 13:35:24;;;;;;;11.43;4.53;;;20.40;99.90;;;;;;1917585;75;21117;-75
2022/10/30 13:38:21;;;;;;;;;;;20.40;99.90;;;;;;1920289;75;21095;-75
2022/10/30 13:41:18;;;;;;;10.90;4.53;;;20.50;99.90;;;;;;1917685;75;20470;-77
2022/10/30 13:44:16;;;;;;;10.78;4.40;;;20.40;99.90;;;;;;1917432;75;21152;-75
2022/10/30 13:47:13;;;;;;;8.03;3.85;;;20.50;99.90;;;;;;1935552;73;21079;-75
2022/10/30 13:50:17;;;;;;;9.35;4.60;;;20.60;99.90;;;;;;1917506;75;21193;-75
2022/10/30 13:53:12;;;;;;;7.83;4.42;;;20.70;99.90;;;;;;1928777;73;21098;-75
2022/10/30 13:56:04;;;;;;;10.35;4.03;;;20.70;99.90;;;;;;1944721;73;21604;-75
2022/10/30 14:01:41;;;;;;;9.03;4.22;;;20.70;99.90;;;;;;1954665;72;22142;-76
2022/10/30 14:07:23;;;;;;;10.48;4.55;;;20.70;99.90;;;;;;1952751;72;22098;-75
2022/10/30 14:10:17;;;;;;;9.53;4.10;;;20.70;99.90;;;;;;1917693;74;21138;-78
2022/10/30 14:13:15;;;;;;;10.88;4.40;;;20.80;99.90;;;;;;1903558;75;21129;-77
2022/10/30 14:19:00;;;;;;;8.65;4.30;;;20.80;99.90;;;;;;1944945;72;22314;-75
2022/10/30 14:21:56;;;;;;;10.32;4.45;;;20.90;99.90;;;;;;1906513;75;21063;-76
2022/10/30 14:24:54;;;;;;;13.95;5.10;;;21.00;99.90;;;;;;1906430;75;21098;-75
2022/10/30 14:27:46;;;;;;;10.53;4.72;;;21.00;99.90;;;;;;1886341;75;21067;-74
2022/10/30 14:30:37;;;;;;;9.48;4.65;;;21.10;99.90;;;;;;1897867;75;21113;-75
2022/10/30 14:36:50;;;;;;;10.68;4.95;;;21.20;99.90;;;;;;1968572;72;22230;-74
2022/10/30 14:39:42;;;;;;;9.60;5.40;;;21.30;99.90;;;;;;1923266;73;21101;-76
2022/10/30 14:42:37;;;;;;;8.65;5.22;;;21.30;99.90;;;;;;1940334;73;21055;-76
2022/10/30 14:45:31;;;;;;;12.80;5.55;;;21.30;99.90;;;;;;1916645;75;21188;-75
2022/10/30 14:48:25;;;;;;;10.28;5.42;;;21.50;99.90;;;;;;1917229;75;21514;-75
2022/10/30 14:51:20;;;;;;;10.32;5.10;;;21.50;99.90;;;;;;1917591;75;21191;-75
2022/10/30 14:54:15;;;;;;;10.35;5.62;;;21.50;99.90;;;;;;1920909;73;21121;-75
2022/10/30 14:57:21;;;;;;;10.75;5.78;;;21.60;99.90;;;;;;1929763;73;21127;-76
2022/10/30 15:03:36;;;;;;;15.28;6.35;;;21.60;99.90;;;;;;1954438;72;22111;-74
2022/10/30 15:06:30;;;;;;;14.18;6.00;;;21.60;99.90;;;;;;1917681;75;21120;-74
2022/10/30 15:09:32;;;;;;;9.50;5.83;;;21.60;99.90;;;;;;1884562;76;21110;-74
2022/10/30 15:12:37;;;;;;;10.70;5.67;;;21.50;99.90;;;;;;1915323;75;21553;-74
2022/10/30 15:15:29;;;;;;;11.60;5.90;;;21.50;99.90;;;;;;1917418;75;21085;-74
2022/10/30 15:18:21;;;;;;;12.75;6.15;;;21.50;99.90;;;;;;1917484;75;21055;-74
2022/10/30 15:21:19;;;;;;;11.45;6.00;;;21.40;99.90;;;;;;1917806;75;21105;-75
2022/10/30 15:24:14;;;;;;;9.95;6.65;;;21.30;99.90;;;;;;1898411;75;21143;-75
2022/10/30 15:27:05;;;;;;;11.93;6.10;;;21.20;99.90;;;;;;1917313;75;21124;-74
2022/10/30 15:29:59;;;;;;;10.88;5.85;;;21.10;99.90;;;;;;1909293;75;21083;-75
2022/10/30 15:32:50;;;;;;;8.28;5.35;;;21.00;99.90;;;;;;1896867;75;21114;-75
2022/10/30 15:35:44;;;;;;;7.67;5.20;;;21.00;99.90;;;;;;1917392;75;21144;-75
2022/10/30 15:38:35;;;;;;;11.57;5.65;;;20.90;99.90;;;;;;1896241;75;21051;-75